sensor_id;sensor_type;location;lat;lon;timestamp;temperature;humidity
17956;DHT22;27666;51.498;11.966;2023-07-02T00:02:42;19.60;99.90
17956;DHT22;27666;51.498;11.966;2023-07-02T00:05:28;19.60;99.90
17956;DHT22;27666;51.498;11.966;2023-07-02T00:08:16;19.70;99.90
17956;DHT22;27666;51.498;11.966;2023-07-02T00:11:04;19.60;99.90
17956;DHT22;27666;51.498;11.966;2023-07-02T00:13:50;19.60;99.90
17956;DHT22;27666;51.498;11.966;2023-07-02T00:16:37;19.70;99.90
17956;DHT22;27666;51.498;11.966;2023-07-02T00:19:25;19.70;99.90
17956;DHT22;27666;51.498;11.966;2023-07-02T00:22:11;19.70;99.90
17956;DHT22;27666;51.498;11.966;2023-07-02T00:25:02;19.60;99.90
17956;DHT22;27666;51.498;11.966;2023-07-02T00:27:49;19.60;99.90
17956;DHT22;27666;51.498;11.966;2023-07-02T00:30:35;19.50;99.90
17956;DHT22;27666;51.498;11.966;2023-07-02T00:33:22;19.50;99.90
17956;DHT22;27666;51.498;11.966;2023-07-02T00:36:09;19.40;99.90
17956;DHT22;27666;51.498;11.966;2023-07-02T00:38:59;19.40;99.90
17956;DHT22;27666;51.498;11.966;2023-07-02T00:41:47;19.40;99.90
17956;DHT22;27666;51.498;11.966;2023-07-02T00:44:35;19.40;99.90
17956;DHT22;27666;51.498;11.966;2023-07-02T00:47:26;19.40;99.90
17956;DHT22;27666;51.498;11.966;2023-07-02T00:50:13;19.40;99.90
17956;DHT22;27666;51.498;11.966;2023-07-02T00:53:00;19.40;99.90
17956;DHT22;27666;51.498;11.966;2023-07-02T00:55:47;19.30;99.90
17956;DHT22;27666;51.498;11.966;2023-07-02T00:58:37;19.30;99.90
17956;DHT22;27666;51.498;11.966;2023-07-02T01:01:26;19.30;99.90
17956;DHT22;27666;51.498;11.966;2023-07-02T01:04:17;19.30;99.90
17956;DHT22;27666;51.498;11.966;2023-07-02T01:07:04;19.30;99.90
17956;DHT22;27666;51.498;11.966;2023-07-02T01:09:56;19.30;99.90
17956;DHT22;27666;51.498;11.966;2023-07-02T01:12:44;19.30;99.90
17956;DHT22;27666;51.498;11.966;2023-07-02T01:15:32;19.30;99.90
17956;DHT22;27666;51.498;11.966;2023-07-02T01:18:19;19.40;99.90
17956;DHT22;27666;51.498;11.966;2023-07-02T01:21:08;19.40;99.90
17956;DHT22;27666;51.498;11.966;2023-07-02T01:23:54;19.40;99.90
17956;DHT22;27666;51.498;11.966;2023-07-02T01:26:41;19.40;99.90
17956;DHT22;27666;51.498;11.966;2023-07-02T01:29:29;19.40;99.90
17956;DHT22;27666;51.498;11.966;2023-07-02T01:32:18;19.30;99.90
17956;DHT22;27666;51.498;11.966;2023-07-02T01:35:06;19.30;99.90
17956;DHT22;27666;51.498;11.966;2023-07-02T01:37:54;19.30;99.90
17956;DHT22;27666;51.498;11.966;2023-07-02T01:40:40;19.20;99.90
17956;DHT22;27666;51.498;11.966;2023-07-02T01:43:27;19.20;99.90
17956;DHT22;27666;51.498;11.966;2023-07-02T01:46:13;19.20;99.90
17956;DHT22;27666;51.498;11.966;2023-07-02T01:49:01;19.20;99.90
17956;DHT22;27666;51.498;11.966;2023-07-02T01:51:49;19.20;99.90
17956;DHT22;27666;51.498;11.966;2023-07-02T01:54:37;19.20;99.90
17956;DHT22;27666;51.498;11.966;2023-07-02T01:57:23;19.20;99.90
17956;DHT22;27666;51.498;11.966;2023-07-02T02:00:11;19.20;99.90
17956;DHT22;27666;51.498;11.966;2023-07-02T02:02:57;19.10;99.90
17956;DHT22;27666;51.498;11.966;2023-07-02T02:05:44;19.10;99.90
17956;DHT22;27666;51.498;11.966;2023-07-02T02:08:30;19.10;99.90
17956;DHT22;27666;51.498;11.966;2023-07-02T02:11:18;19.00;99.90
17956;DHT22;27666;51.498;11.966;2023-07-02T02:14:05;19.00;99.90
17956;DHT22;27666;51.498;11.966;2023-07-02T02:16:51;19.00;99.90
17956;DHT22;27666;51.498;11.966;2023-07-02T02:19:38;19.00;99.90
17956;DHT22;27666;51.498;11.966;2023-07-02T02:22:24;19.00;99.90
17956;DHT22;27666;51.498;11.966;2023-07-02T02:25:11;19.00;99.90
17956;DHT22;27666;51.498;11.966;2023-07-02T02:27:59;19.00;99.90
17956;DHT22;27666;51.498;11.966;2023-07-02T02:30:45;19.00;99.90
17956;DHT22;27666;51.498;11.966;2023-07-02T02:33:33;18.90;99.90
17956;DHT22;27666;51.498;11.966;2023-07-02T02:36:20;18.90;99.90
17956;DHT22;27666;51.498;11.966;2023-07-02T02:39:06;18.90;99.90
17956;DHT22;27666;51.498;11.966;2023-07-02T02:41:53;18.80;99.90
17956;DHT22;27666;51.498;11.966;2023-07-02T02:44:40;18.80;99.90
17956;DHT22;27666;51.498;11.966;2023-07-02T02:47:27;18.80;99.90
17956;DHT22;27666;51.498;11.966;2023-07-02T02:50:14;18.80;99.90
17956;DHT22;27666;51.498;11.966;2023-07-02T02:53:00;18.80;99.90
17956;DHT22;27666;51.498;11.966;2023-07-02T02:55:47;18.80;99.90
17956;DHT22;27666;51.498;11.966;2023-07-02T02:58:34;18.80;99.90
17956;DHT22;27666;51.498;11.966;2023-07-02T03:01:22;18.80;99.90
17956;DHT22;27666;51.498;11.966;2023-07-02T03:04:09;18.70;99.90
17956;DHT22;27666;51.498;11.966;2023-07-02T03:06:55;18.80;99.90
17956;DHT22;27666;51.498;11.966;2023-07-02T03:09:42;18.70;99.90
17956;DHT22;27666;51.498;11.966;2023-07-02T03:12:29;18.70;99.90
17956;DHT22;27666;51.498;11.966;2023-07-02T03:15:15;18.70;99.90
17956;DHT22;27666;51.498;11.966;2023-07-02T03:18:04;18.70;99.90
17956;DHT22;27666;51.498;11.966;2023-07-02T03:20:52;18.70;99.90
17956;DHT22;27666;51.498;11.966;2023-07-02T03:23:38;18.80;99.90
17956;DHT22;27666;51.498;11.966;2023-07-02T03:26:24;18.80;99.90
17956;DHT22;27666;51.498;11.966;2023-07-02T03:29:11;18.80;99.90
17956;DHT22;27666;51.498;11.966;2023-07-02T03:31:58;18.80;99.90
17956;DHT22;27666;51.498;11.966;2023-07-02T03:34:47;18.80;99.90
17956;DHT22;27666;51.498;11.966;2023-07-02T03:37:35;18.70;99.90
17956;DHT22;27666;51.498;11.966;2023-07-02T03:40:22;18.70;99.90
17956;DHT22;27666;51.498;11.966;2023-07-02T03:43:08;18.70;99.90
17956;DHT22;27666;51.498;11.966;2023-07-02T03:45:54;18.80;99.90
17956;DHT22;27666;51.498;11.966;2023-07-02T03:48:40;18.80;99.90
17956;DHT22;27666;51.498;11.966;2023-07-02T03:51:30;18.80;99.90
17956;DHT22;27666;51.498;11.966;2023-07-02T03:54:16;18.80;99.90
17956;DHT22;27666;51.498;11.966;2023-07-02T03:57:03;18.80;99.90
17956;DHT22;27666;51.498;11.966;2023-07-02T03:59:50;18.80;99.90
17956;DHT22;27666;51.498;11.966;2023-07-02T04:02:37;18.90;99.90
17956;DHT22;27666;51.498;11.966;2023-07-02T04:05:26;18.90;99.90
17956;DHT22;27666;51.498;11.966;2023-07-02T04:08:14;18.90;99.90
17956;DHT22;27666;51.498;11.966;2023-07-02T04:11:01;18.90;99.90
17956;DHT22;27666;51.498;11.966;2023-07-02T04:13:47;18.90;99.90
17956;DHT22;27666;51.498;11.966;2023-07-02T04:16:34;18.90;99.90
17956;DHT22;27666;51.498;11.966;2023-07-02T04:19:21;19.00;99.90
17956;DHT22;27666;51.498;11.966;2023-07-02T04:22:07;19.00;99.90
17956;DHT22;27666;51.498;11.966;2023-07-02T04:24:58;19.00;99.90
17956;DHT22;27666;51.498;11.966;2023-07-02T04:27:54;19.00;99.90
17956;DHT22;27666;51.498;11.966;2023-07-02T04:30:42;19.10;99.90
17956;DHT22;27666;51.498;11.966;2023-07-02T04:33:28;19.10;99.90
17956;DHT22;27666;51.498;11.966;2023-07-02T04:36:21;19.10;99.90
17956;DHT22;27666;51.498;11.966;2023-07-02T04:39:08;19.10;99.90
17956;DHT22;27666;51.498;11.966;2023-07-02T04:41:57;19.20;99.90
17956;DHT22;27666;51.498;11.966;2023-07-02T04:44:44;19.30;99.90
17956;DHT22;27666;51.498;11.966;2023-07-02T04:47:31;19.40;99.90
17956;DHT22;27666;51.498;11.966;2023-07-02T04:50:18;19.50;99.90
17956;DHT22;27666;51.498;11.966;2023-07-02T04:53:05;19.70;99.90
17956;DHT22;27666;51.498;11.966;2023-07-02T04:55:51;19.70;99.90
17956;DHT22;27666;51.498;11.966;2023-07-02T04:58:39;19.80;99.90
17956;DHT22;27666;51.498;11.966;2023-07-02T05:01:27;19.90;99.90
17956;DHT22;27666;51.498;11.966;2023-07-02T05:04:14;20.00;99.90
17956;DHT22;27666;51.498;11.966;2023-07-02T05:07:00;20.20;99.90
17956;DHT22;27666;51.498;11.966;2023-07-02T05:09:47;20.50;99.90
17956;DHT22;27666;51.498;11.966;2023-07-02T05:12:35;20.70;99.90
17956;DHT22;27666;51.498;11.966;2023-07-02T05:15:23;20.80;99.90
17956;DHT22;27666;51.498;11.966;2023-07-02T05:18:09;20.90;99.90
17956;DHT22;27666;51.498;11.966;2023-07-02T05:20:56;21.00;99.90
17956;DHT22;27666;51.498;11.966;2023-07-02T05:23:42;21.10;99.90
17956;DHT22;27666;51.498;11.966;2023-07-02T05:26:29;21.10;99.90
17956;DHT22;27666;51.498;11.966;2023-07-02T05:29:15;21.20;99.90
17956;DHT22;27666;51.498;11.966;2023-07-02T05:32:03;21.30;99.90
17956;DHT22;27666;51.498;11.966;2023-07-02T05:34:51;21.30;99.90
17956;DHT22;27666;51.498;11.966;2023-07-02T05:37:38;21.40;99.90
17956;DHT22;27666;51.498;11.966;2023-07-02T05:40:24;21.70;99.90
17956;DHT22;27666;51.498;11.966;2023-07-02T05:43:11;22.00;99.90
17956;DHT22;27666;51.498;11.966;2023-07-02T05:45:58;22.40;99.90
17956;DHT22;27666;51.498;11.966;2023-07-02T05:48:47;23.40;99.90
17956;DHT22;27666;51.498;11.966;2023-07-02T05:51:34;23.90;99.90
17956;DHT22;27666;51.498;11.966;2023-07-02T05:54:20;24.10;99.90
17956;DHT22;27666;51.498;11.966;2023-07-02T05:59:54;25.80;99.90
17956;DHT22;27666;51.498;11.966;2023-07-02T06:02:40;27.70;99.90
17956;DHT22;27666;51.498;11.966;2023-07-02T06:08:16;31.00;98.60
17956;DHT22;27666;51.498;11.966;2023-07-02T06:11:02;32.10;94.50
17956;DHT22;27666;51.498;11.966;2023-07-02T06:16:36;33.20;89.10
17956;DHT22;27666;51.498;11.966;2023-07-02T06:19:23;34.10;85.00
17956;DHT22;27666;51.498;11.966;2023-07-02T06:22:11;34.30;81.40
17956;DHT22;27666;51.498;11.966;2023-07-02T06:24:58;34.80;78.90
17956;DHT22;27666;51.498;11.966;2023-07-02T06:27:49;35.20;74.50
17956;DHT22;27666;51.498;11.966;2023-07-02T06:30:37;34.70;74.20
17956;DHT22;27666;51.498;11.966;2023-07-02T06:33:23;34.50;73.50
17956;DHT22;27666;51.498;11.966;2023-07-02T06:36:10;34.50;71.80
17956;DHT22;27666;51.498;11.966;2023-07-02T06:39:03;33.80;72.50
17956;DHT22;27666;51.498;11.966;2023-07-02T06:41:49;32.70;73.90
17956;DHT22;27666;51.498;11.966;2023-07-02T06:44:36;31.80;74.90
17956;DHT22;27666;51.498;11.966;2023-07-02T06:47:22;32.60;75.30
17956;DHT22;27666;51.498;11.966;2023-07-02T06:50:09;31.90;75.60
17956;DHT22;27666;51.498;11.966;2023-07-02T06:52:56;31.00;76.80
17956;DHT22;27666;51.498;11.966;2023-07-02T06:55:43;30.90;78.10
17956;DHT22;27666;51.498;11.966;2023-07-02T06:58:30;32.40;76.80
17956;DHT22;27666;51.498;11.966;2023-07-02T07:01:17;33.20;73.70
17956;DHT22;27666;51.498;11.966;2023-07-02T07:04:03;32.90;71.80
17956;DHT22;27666;51.498;11.966;2023-07-02T07:06:50;31.80;73.40
17956;DHT22;27666;51.498;11.966;2023-07-02T07:09:36;30.30;75.00
17956;DHT22;27666;51.498;11.966;2023-07-02T07:12:24;29.10;78.00
17956;DHT22;27666;51.498;11.966;2023-07-02T07:15:11;28.00;80.10
17956;DHT22;27666;51.498;11.966;2023-07-02T07:17:57;27.10;83.70
17956;DHT22;27666;51.498;11.966;2023-07-02T07:20:44;26.60;85.30
17956;DHT22;27666;51.498;11.966;2023-07-02T07:23:31;26.10;87.60
17956;DHT22;27666;51.498;11.966;2023-07-02T07:26:17;25.50;89.40
17956;DHT22;27666;51.498;11.966;2023-07-02T07:29:08;25.00;91.20
17956;DHT22;27666;51.498;11.966;2023-07-02T07:31:54;24.60;92.30
17956;DHT22;27666;51.498;11.966;2023-07-02T07:34:43;24.30;93.20
17956;DHT22;27666;51.498;11.966;2023-07-02T07:37:29;24.30;93.60
17956;DHT22;27666;51.498;11.966;2023-07-02T07:40:15;24.30;94.20
17956;DHT22;27666;51.498;11.966;2023-07-02T07:43:02;24.30;93.90
17956;DHT22;27666;51.498;11.966;2023-07-02T07:45:50;24.20;94.90
17956;DHT22;27666;51.498;11.966;2023-07-02T07:48:36;24.10;95.30
17956;DHT22;27666;51.498;11.966;2023-07-02T07:51:23;24.10;95.60
17956;DHT22;27666;51.498;11.966;2023-07-02T07:54:11;24.60;95.80
17956;DHT22;27666;51.498;11.966;2023-07-02T07:56:57;24.90;95.10
17956;DHT22;27666;51.498;11.966;2023-07-02T07:59:44;24.90;94.70
17956;DHT22;27666;51.498;11.966;2023-07-02T08:02:31;25.00;94.40
17956;DHT22;27666;51.498;11.966;2023-07-02T08:05:18;25.20;94.10
17956;DHT22;27666;51.498;11.966;2023-07-02T08:08:05;25.20;93.40
17956;DHT22;27666;51.498;11.966;2023-07-02T08:10:53;25.20;93.50
17956;DHT22;27666;51.498;11.966;2023-07-02T08:13:40;24.90;93.70
17956;DHT22;27666;51.498;11.966;2023-07-02T08:16:26;24.50;93.90
17956;DHT22;27666;51.498;11.966;2023-07-02T08:19:14;24.10;94.40
17956;DHT22;27666;51.498;11.966;2023-07-02T08:22:00;23.90;95.00
17956;DHT22;27666;51.498;11.966;2023-07-02T08:24:47;23.70;95.40
17956;DHT22;27666;51.498;11.966;2023-07-02T08:27:35;23.90;95.50
17956;DHT22;27666;51.498;11.966;2023-07-02T08:30:21;24.20;95.70
17956;DHT22;27666;51.498;11.966;2023-07-02T08:33:08;24.50;95.50
17956;DHT22;27666;51.498;11.966;2023-07-02T08:35:55;24.70;94.70
17956;DHT22;27666;51.498;11.966;2023-07-02T08:38:42;25.10;94.40
17956;DHT22;27666;51.498;11.966;2023-07-02T08:41:29;25.60;93.60
17956;DHT22;27666;51.498;11.966;2023-07-02T08:44:20;26.20;92.60
17956;DHT22;27666;51.498;11.966;2023-07-02T08:47:08;26.50;91.80
17956;DHT22;27666;51.498;11.966;2023-07-02T08:49:55;26.50;91.40
17956;DHT22;27666;51.498;11.966;2023-07-02T08:52:43;26.10;91.40
17956;DHT22;27666;51.498;11.966;2023-07-02T08:55:31;25.80;92.30
17956;DHT22;27666;51.498;11.966;2023-07-02T08:58:17;25.50;92.20
17956;DHT22;27666;51.498;11.966;2023-07-02T09:01:05;25.40;92.70
17956;DHT22;27666;51.498;11.966;2023-07-02T09:03:52;25.30;92.80
17956;DHT22;27666;51.498;11.966;2023-07-02T09:06:45;25.10;93.70
17956;DHT22;27666;51.498;11.966;2023-07-02T09:09:33;25.00;93.70
17956;DHT22;27666;51.498;11.966;2023-07-02T09:12:30;24.90;94.20
17956;DHT22;27666;51.498;11.966;2023-07-02T09:15:19;25.00;94.40
17956;DHT22;27666;51.498;11.966;2023-07-02T09:18:19;25.50;93.90
17956;DHT22;27666;51.498;11.966;2023-07-02T09:21:05;25.90;93.40
17956;DHT22;27666;51.498;11.966;2023-07-02T09:23:52;26.40;92.70
17956;DHT22;27666;51.498;11.966;2023-07-02T09:26:43;26.40;92.30
17956;DHT22;27666;51.498;11.966;2023-07-02T09:29:31;26.30;91.60
17956;DHT22;27666;51.498;11.966;2023-07-02T09:32:24;26.50;91.40
17956;DHT22;27666;51.498;11.966;2023-07-02T09:35:12;26.50;91.10
17956;DHT22;27666;51.498;11.966;2023-07-02T09:38:01;26.60;90.60
17956;DHT22;27666;51.498;11.966;2023-07-02T09:40:50;26.90;90.00
17956;DHT22;27666;51.498;11.966;2023-07-02T09:43:38;27.20;88.90
17956;DHT22;27666;51.498;11.966;2023-07-02T09:46:25;27.50;88.50
17956;DHT22;27666;51.498;11.966;2023-07-02T09:49:14;27.60;87.40
17956;DHT22;27666;51.498;11.966;2023-07-02T09:52:01;27.70;85.90
17956;DHT22;27666;51.498;11.966;2023-07-02T09:54:48;27.90;84.10
17956;DHT22;27666;51.498;11.966;2023-07-02T09:57:35;27.80;84.50
17956;DHT22;27666;51.498;11.966;2023-07-02T10:00:24;27.90;84.80
17956;DHT22;27666;51.498;11.966;2023-07-02T10:03:11;28.10;82.80
17956;DHT22;27666;51.498;11.966;2023-07-02T10:06:04;27.90;82.40
17956;DHT22;27666;51.498;11.966;2023-07-02T10:08:55;27.80;83.50
17956;DHT22;27666;51.498;11.966;2023-07-02T10:11:42;27.60;82.30
17956;DHT22;27666;51.498;11.966;2023-07-02T10:14:40;27.50;82.50
17956;DHT22;27666;51.498;11.966;2023-07-02T10:17:29;27.80;82.60
17956;DHT22;27666;51.498;11.966;2023-07-02T10:20:17;28.20;82.20
17956;DHT22;27666;51.498;11.966;2023-07-02T10:23:04;28.40;81.20
17956;DHT22;27666;51.498;11.966;2023-07-02T10:25:50;28.40;81.30
17956;DHT22;27666;51.498;11.966;2023-07-02T10:28:37;28.10;81.70
17956;DHT22;27666;51.498;11.966;2023-07-02T10:31:24;27.80;82.10
17956;DHT22;27666;51.498;11.966;2023-07-02T10:34:12;27.30;83.40
17956;DHT22;27666;51.498;11.966;2023-07-02T10:39:45;26.00;85.80
17956;DHT22;27666;51.498;11.966;2023-07-02T10:42:31;25.30;88.40
17956;DHT22;27666;51.498;11.966;2023-07-02T10:48:09;24.50;90.20
17956;DHT22;27666;51.498;11.966;2023-07-02T10:50:57;24.30;91.20
17956;DHT22;27666;51.498;11.966;2023-07-02T10:53:44;24.50;91.40
17956;DHT22;27666;51.498;11.966;2023-07-02T10:56:32;24.90;91.60
17956;DHT22;27666;51.498;11.966;2023-07-02T10:59:24;25.40;90.80
17956;DHT22;27666;51.498;11.966;2023-07-02T11:02:10;25.70;90.30
17956;DHT22;27666;51.498;11.966;2023-07-02T11:04:57;25.80;90.00
17956;DHT22;27666;51.498;11.966;2023-07-02T11:07:45;25.80;89.60
17956;DHT22;27666;51.498;11.966;2023-07-02T11:10:32;25.60;90.20
17956;DHT22;27666;51.498;11.966;2023-07-02T11:13:20;25.70;90.00
17956;DHT22;27666;51.498;11.966;2023-07-02T11:16:17;26.00;89.90
17956;DHT22;27666;51.498;11.966;2023-07-02T11:19:08;26.30;89.00
17956;DHT22;27666;51.498;11.966;2023-07-02T11:21:56;26.30;88.70
17956;DHT22;27666;51.498;11.966;2023-07-02T11:24:45;26.20;88.10
17956;DHT22;27666;51.498;11.966;2023-07-02T11:27:32;26.10;85.60
17956;DHT22;27666;51.498;11.966;2023-07-02T11:30:18;25.90;87.90
17956;DHT22;27666;51.498;11.966;2023-07-02T11:33:04;25.80;83.60
17956;DHT22;27666;51.498;11.966;2023-07-02T11:35:51;25.60;85.10
17956;DHT22;27666;51.498;11.966;2023-07-02T11:38:37;25.40;83.50
17956;DHT22;27666;51.498;11.966;2023-07-02T11:41:36;25.30;86.00
17956;DHT22;27666;51.498;11.966;2023-07-02T11:44:23;25.40;86.60
17956;DHT22;27666;51.498;11.966;2023-07-02T11:47:09;25.40;84.60
17956;DHT22;27666;51.498;11.966;2023-07-02T11:49:56;25.50;87.40
17956;DHT22;27666;51.498;11.966;2023-07-02T11:52:53;25.60;85.20
17956;DHT22;27666;51.498;11.966;2023-07-02T11:55:40;25.50;85.10
17956;DHT22;27666;51.498;11.966;2023-07-02T11:58:28;25.60;85.00
17956;DHT22;27666;51.498;11.966;2023-07-02T12:01:14;25.50;84.50
17956;DHT22;27666;51.498;11.966;2023-07-02T12:04:01;25.30;82.50
17956;DHT22;27666;51.498;11.966;2023-07-02T12:06:48;25.30;81.60
17956;DHT22;27666;51.498;11.966;2023-07-02T12:09:35;25.60;82.20
17956;DHT22;27666;51.498;11.966;2023-07-02T12:12:22;25.70;82.10
17956;DHT22;27666;51.498;11.966;2023-07-02T12:15:11;25.60;81.90
17956;DHT22;27666;51.498;11.966;2023-07-02T12:17:57;25.50;83.00
17956;DHT22;27666;51.498;11.966;2023-07-02T12:20:45;25.50;81.20
17956;DHT22;27666;51.498;11.966;2023-07-02T12:23:31;25.40;82.50
17956;DHT22;27666;51.498;11.966;2023-07-02T12:26:18;25.50;83.40
17956;DHT22;27666;51.498;11.966;2023-07-02T12:29:04;25.60;81.80
17956;DHT22;27666;51.498;11.966;2023-07-02T12:31:52;25.50;81.90
17956;DHT22;27666;51.498;11.966;2023-07-02T12:34:38;25.40;80.50
17956;DHT22;27666;51.498;11.966;2023-07-02T12:37:24;25.30;79.70
17956;DHT22;27666;51.498;11.966;2023-07-02T12:40:12;25.30;80.80
17956;DHT22;27666;51.498;11.966;2023-07-02T12:42:58;25.50;81.90
17956;DHT22;27666;51.498;11.966;2023-07-02T12:45:45;25.60;80.90
17956;DHT22;27666;51.498;11.966;2023-07-02T12:48:33;25.70;80.50
17956;DHT22;27666;51.498;11.966;2023-07-02T12:51:20;25.90;81.00
17956;DHT22;27666;51.498;11.966;2023-07-02T12:54:06;26.00;80.00
17956;DHT22;27666;51.498;11.966;2023-07-02T12:56:53;26.00;79.30
17956;DHT22;27666;51.498;11.966;2023-07-02T12:59:40;26.00;77.60
17956;DHT22;27666;51.498;11.966;2023-07-02T13:02:26;25.70;75.00
17956;DHT22;27666;51.498;11.966;2023-07-02T13:05:15;25.60;74.90
17956;DHT22;27666;51.498;11.966;2023-07-02T13:08:01;25.70;77.20
17956;DHT22;27666;51.498;11.966;2023-07-02T13:10:47;25.70;76.80
17956;DHT22;27666;51.498;11.966;2023-07-02T13:13:34;25.70;76.50
17956;DHT22;27666;51.498;11.966;2023-07-02T13:16:21;25.70;76.70
17956;DHT22;27666;51.498;11.966;2023-07-02T13:19:11;25.70;78.80
17956;DHT22;27666;51.498;11.966;2023-07-02T13:21:59;25.50;78.20
17956;DHT22;27666;51.498;11.966;2023-07-02T13:24:45;25.50;80.80
17956;DHT22;27666;51.498;11.966;2023-07-02T13:27:32;25.40;80.00
17956;DHT22;27666;51.498;11.966;2023-07-02T13:30:19;25.30;78.60
17956;DHT22;27666;51.498;11.966;2023-07-02T13:33:06;25.30;81.60
17956;DHT22;27666;51.498;11.966;2023-07-02T13:35:52;25.20;76.40
17956;DHT22;27666;51.498;11.966;2023-07-02T13:38:40;25.10;76.60
17956;DHT22;27666;51.498;11.966;2023-07-02T13:41:28;25.10;77.80
17956;DHT22;27666;51.498;11.966;2023-07-02T13:44:15;25.30;75.50
17956;DHT22;27666;51.498;11.966;2023-07-02T13:47:02;25.30;74.60
17956;DHT22;27666;51.498;11.966;2023-07-02T13:49:48;25.40;78.50
17956;DHT22;27666;51.498;11.966;2023-07-02T13:52:35;25.40;75.80
17956;DHT22;27666;51.498;11.966;2023-07-02T13:55:22;25.40;80.00
17956;DHT22;27666;51.498;11.966;2023-07-02T13:58:13;25.40;77.70
17956;DHT22;27666;51.498;11.966;2023-07-02T14:01:14;25.20;75.40
17956;DHT22;27666;51.498;11.966;2023-07-02T14:04:01;25.00;75.80
17956;DHT22;27666;51.498;11.966;2023-07-02T14:06:49;25.10;76.10
17956;DHT22;27666;51.498;11.966;2023-07-02T14:09:35;25.20;76.10
17956;DHT22;27666;51.498;11.966;2023-07-02T14:12:22;25.30;75.50
17956;DHT22;27666;51.498;11.966;2023-07-02T14:15:10;25.30;74.90
17956;DHT22;27666;51.498;11.966;2023-07-02T14:17:58;25.20;75.30
17956;DHT22;27666;51.498;11.966;2023-07-02T14:20:44;25.20;75.00
17956;DHT22;27666;51.498;11.966;2023-07-02T14:23:31;25.20;76.00
17956;DHT22;27666;51.498;11.966;2023-07-02T14:26:18;25.20;75.90
17956;DHT22;27666;51.498;11.966;2023-07-02T14:29:05;25.20;74.90
17956;DHT22;27666;51.498;11.966;2023-07-02T14:31:51;25.10;76.00
17956;DHT22;27666;51.498;11.966;2023-07-02T14:34:39;25.00;76.00
17956;DHT22;27666;51.498;11.966;2023-07-02T14:37:25;24.80;77.30
17956;DHT22;27666;51.498;11.966;2023-07-02T14:40:15;24.70;79.20
17956;DHT22;27666;51.498;11.966;2023-07-02T14:43:02;24.70;78.80
17956;DHT22;27666;51.498;11.966;2023-07-02T14:45:51;24.70;76.20
17956;DHT22;27666;51.498;11.966;2023-07-02T14:48:38;24.80;76.50
17956;DHT22;27666;51.498;11.966;2023-07-02T14:51:27;24.90;80.40
17956;DHT22;27666;51.498;11.966;2023-07-02T14:54:15;24.80;76.40
17956;DHT22;27666;51.498;11.966;2023-07-02T14:57:02;24.60;76.70
17956;DHT22;27666;51.498;11.966;2023-07-02T14:59:48;24.60;77.40
17956;DHT22;27666;51.498;11.966;2023-07-02T15:02:36;24.70;76.90
17956;DHT22;27666;51.498;11.966;2023-07-02T15:05:23;24.70;74.50
17956;DHT22;27666;51.498;11.966;2023-07-02T15:08:11;24.70;75.40
17956;DHT22;27666;51.498;11.966;2023-07-02T15:10:59;24.70;75.10
17956;DHT22;27666;51.498;11.966;2023-07-02T15:13:47;24.70;73.90
17956;DHT22;27666;51.498;11.966;2023-07-02T15:16:34;24.70;74.40
17956;DHT22;27666;51.498;11.966;2023-07-02T15:19:20;24.70;73.80
17956;DHT22;27666;51.498;11.966;2023-07-02T15:22:10;24.50;75.30
17956;DHT22;27666;51.498;11.966;2023-07-02T15:24:57;24.40;74.40
17956;DHT22;27666;51.498;11.966;2023-07-02T15:27:44;24.30;80.50
17956;DHT22;27666;51.498;11.966;2023-07-02T15:30:31;24.30;75.50
17956;DHT22;27666;51.498;11.966;2023-07-02T15:33:17;24.30;83.30
17956;DHT22;27666;51.498;11.966;2023-07-02T15:36:05;24.40;79.50
17956;DHT22;27666;51.498;11.966;2023-07-02T15:38:54;24.60;84.70
17956;DHT22;27666;51.498;11.966;2023-07-02T15:41:42;24.70;81.90
17956;DHT22;27666;51.498;11.966;2023-07-02T15:44:29;24.60;79.90
17956;DHT22;27666;51.498;11.966;2023-07-02T15:47:15;24.70;79.30
17956;DHT22;27666;51.498;11.966;2023-07-02T15:50:02;24.70;80.30
17956;DHT22;27666;51.498;11.966;2023-07-02T15:52:49;24.60;79.30
17956;DHT22;27666;51.498;11.966;2023-07-02T15:55:36;24.50;78.50
17956;DHT22;27666;51.498;11.966;2023-07-02T15:58:24;24.50;77.80
17956;DHT22;27666;51.498;11.966;2023-07-02T16:01:13;24.50;77.90
17956;DHT22;27666;51.498;11.966;2023-07-02T16:04:00;24.60;76.50
17956;DHT22;27666;51.498;11.966;2023-07-02T16:06:47;24.60;77.20
17956;DHT22;27666;51.498;11.966;2023-07-02T16:09:34;24.60;77.20
17956;DHT22;27666;51.498;11.966;2023-07-02T16:12:20;24.50;75.70
17956;DHT22;27666;51.498;11.966;2023-07-02T16:15:08;24.40;76.50
17956;DHT22;27666;51.498;11.966;2023-07-02T16:17:55;24.30;76.90
17956;DHT22;27666;51.498;11.966;2023-07-02T16:20:41;24.20;75.90
17956;DHT22;27666;51.498;11.966;2023-07-02T16:23:28;24.10;79.00
17956;DHT22;27666;51.498;11.966;2023-07-02T16:26:14;24.10;80.90
17956;DHT22;27666;51.498;11.966;2023-07-02T16:29:01;24.00;77.70
17956;DHT22;27666;51.498;11.966;2023-07-02T16:31:54;23.80;77.50
17956;DHT22;27666;51.498;11.966;2023-07-02T16:34:41;23.70;81.40
17956;DHT22;27666;51.498;11.966;2023-07-02T16:37:29;23.70;79.30
17956;DHT22;27666;51.498;11.966;2023-07-02T16:40:15;23.60;79.30
17956;DHT22;27666;51.498;11.966;2023-07-02T16:43:02;23.50;79.70
17956;DHT22;27666;51.498;11.966;2023-07-02T16:45:51;23.60;81.60
17956;DHT22;27666;51.498;11.966;2023-07-02T16:48:39;23.70;80.50
17956;DHT22;27666;51.498;11.966;2023-07-02T16:51:25;23.60;82.80
17956;DHT22;27666;51.498;11.966;2023-07-02T16:54:13;23.60;81.30
17956;DHT22;27666;51.498;11.966;2023-07-02T16:57:01;23.40;83.60
17956;DHT22;27666;51.498;11.966;2023-07-02T16:59:50;23.40;83.20
17956;DHT22;27666;51.498;11.966;2023-07-02T17:02:37;23.30;81.40
17956;DHT22;27666;51.498;11.966;2023-07-02T17:05:25;23.20;82.80
17956;DHT22;27666;51.498;11.966;2023-07-02T17:08:13;23.20;82.60
17956;DHT22;27666;51.498;11.966;2023-07-02T17:11:00;23.10;82.00
17956;DHT22;27666;51.498;11.966;2023-07-02T17:13:49;22.90;82.40
17956;DHT22;27666;51.498;11.966;2023-07-02T17:16:35;22.80;85.70
17956;DHT22;27666;51.498;11.966;2023-07-02T17:19:25;22.70;84.10
17956;DHT22;27666;51.498;11.966;2023-07-02T17:22:15;22.70;85.60
17956;DHT22;27666;51.498;11.966;2023-07-02T17:25:03;22.70;90.10
17956;DHT22;27666;51.498;11.966;2023-07-02T17:27:50;22.70;88.20
17956;DHT22;27666;51.498;11.966;2023-07-02T17:30:36;22.60;82.90
17956;DHT22;27666;51.498;11.966;2023-07-02T17:33:25;22.70;85.20
17956;DHT22;27666;51.498;11.966;2023-07-02T17:36:15;22.70;83.50